Flight Track Log - Related Links

Times and Time Zones

All times are in EDT time to prevent confusion due to time zone crossing. See the JZA8843 flight status page for this flight to view local times or setup timezone preferences in your user account.

Time Position Orientation Groundspeed Altitude Reporting Facility
EDT Latitude Longitude Course Direction KTS MPH feet Rate Location/Type
Sat 10:04:41 PM 43.6667 -79.6167 180° South 10 12 500  Level Toronto Center
Sat 10:06:48 PM 43.6500 -79.6167 180° South 10 12 500  Level Toronto Center
Sat 10:09:48 PM 43.6667 -79.5833 55° Northeast 110 127 500 675 Level Toronto Center
Sat 10:10:48 PM 43.7000 -79.5333 47° Northeast 180 207 3,200 2,650 Climbing Toronto Center
Sat 10:11:48 PM 43.7500 -79.5167 14° North 210 242 5,800 2,600 Climbing Toronto Center
Sat 10:12:48 PM 43.7833 -79.6167 295° West 240 276 8,400 2,500 Climbing Toronto Center
Sat 10:13:48 PM 43.8000 -79.7000 286° West 280 322 10,800 2,350 Climbing Toronto Center
Sat 10:14:48 PM 43.8333 -79.8167 292° West 310 357 13,100 2,050 Climbing Toronto Center
Sat 10:15:48 PM 43.8500 -79.9500 280° West 350 403 14,900 1,850 Climbing Toronto Center
Sat 10:16:48 PM 43.8833 -80.1000 287° West 360 414 16,800 1,700 Climbing Toronto Center
Sat 10:17:48 PM 43.9500 -80.2167 308° West 380 437 18,300 1,700 Climbing Toronto Center
Sat 10:18:48 PM 44.0167 -80.3333 308° West 390 449 20,200 1,750 Climbing Toronto Center
Sat 10:19:48 PM 44.1000 -80.4167 324° Northwest 390 449 21,800 1,650 Climbing Toronto Center
Sat 10:20:48 PM 44.1667 -80.5333 309° West 400 460 23,500 1,500 Climbing Toronto Center
Sat 10:21:48 PM 44.2500 -80.6500 315° West 400 460 24,800 1,200 Climbing Toronto Center
Sat 10:22:48 PM 44.3167 -80.7667 309° West 410 472 25,900 1,400 Climbing Toronto Center
Sat 10:23:48 PM 44.3833 -80.9167 302° West 420 483 27,600 1,700 Climbing Toronto Center
Sat 10:24:48 PM 44.4667 -81.0167 319° Northwest 410 472 29,300 1,700 Climbing Toronto Center
Sat 10:25:48 PM 44.5333 -81.1500 305° West 400 460 31,000 1,500 Climbing Toronto Center
Sat 10:26:48 PM 44.6167 -81.2500 320° Northwest 400 460 32,300 1,500 Climbing Toronto Center
Sat 10:27:48 PM 44.6833 -81.3667 309° West 390 449 34,000 1,550 Climbing Toronto Center
Sat 10:28:48 PM 44.7500 -81.4833 309° West 370 426 35,400 1,250 Climbing Toronto Center
Sat 10:29:48 PM 44.8167 -81.5833 313° West 370 426 36,500 1,100 Climbing Toronto Center
Sat 10:30:48 PM 44.8833 -81.7000 309° West 360 414 37,600 750 Climbing Toronto Center
Sat 10:31:48 PM 44.9500 -81.8000 313° West 360 414 38,000 200 Climbing Toronto Center
Sat 10:32:48 PM 45.0167 -81.9167 309° West 370 426 38,000  Level Toronto Center
Sat 10:33:48 PM 45.0833 -82.0333 309° West 380 437 38,000  Level Toronto Center
Sat 10:34:48 PM 45.1500 -82.1667 305° West 390 449 38,000  Level Toronto Center
Sat 10:35:48 PM 45.2167 -82.2667 313° West 390 449 38,000  Level Toronto Center
Sat 10:36:48 PM 45.3000 -82.3833 315° West 390 449 38,000  Level Toronto Center
Sat 10:37:48 PM 45.3667 -82.5000 309° West 390 449 38,000  Level Toronto Center
Sat 10:38:48 PM 45.4333 -82.6333 306° West 390 449 38,000  Level Toronto Center
Sat 10:39:48 PM 45.5000 -82.7500 309° West 390 449 38,000  Level Toronto Center
Sat 10:40:48 PM 45.5667 -82.8500 314° West 390 449 38,000  Level Toronto Center
Sat 10:41:48 PM 45.6500 -82.9667 316° Northwest 390 449 38,000  Level Toronto Center
Sat 10:42:48 PM 45.7167 -83.1000 306° West 390 449 38,000  Level Toronto Center
Sat 10:43:48 PM 45.7833 -83.2167 309° West 390 449 38,000  Level Toronto Center
Sat 10:44:48 PM 45.8500 -83.3500 306° West 390 449 38,000  Level Toronto Center
Sat 10:45:48 PM 45.9167 -83.4667 309° West 390 449 38,000  Level Toronto Center
Sat 10:46:48 PM 45.9833 -83.5667 314° West 390 449 38,000  Level Toronto Center
Sat 10:47:48 PM 46.0667 -83.7000 312° West 390 449 38,000  Level Toronto Center
Sat 10:48:48 PM 46.1167 -83.8167 302° West 390 449 38,000  Level Toronto Center
Sat 10:49:48 PM 46.1833 -83.9500 306° West 390 449 38,000  Level Toronto Center
Sat 10:50:48 PM 46.2667 -84.0667 316° Northwest 390 449 38,000  Level Toronto Center
Sat 10:51:48 PM 46.3333 -84.1667 314° West 390 449 38,000  Level Toronto Center
Sat 10:52:48 PM 46.4000 -84.3000 306° West 390 449 38,000  Level Toronto Center
Sat 10:53:48 PM 46.4500 -84.4500 296° West 390 449 38,000  Level Toronto Center
Sat 10:54:48 PM 46.5167 -84.5667 310° West 380 437 38,000  Level Toronto Center
Sat 10:55:48 PM 46.5500 -84.7000 290° West 380 437 38,000  Level Toronto Center
Sat 10:56:48 PM 46.6000 -84.8500 296° West 380 437 38,000  Level Toronto Center
Sat 10:57:51 PM 46.6500 -84.9167 318° Northwest 380 437 38,000  Level Winnipeg Center
Sat 10:58:51 PM 46.7000 -85.0500 299° West 380 437 38,000  Level Winnipeg Center
Sat 10:59:51 PM 46.7500 -85.2000 296° West 380 437 38,000  Level Winnipeg Center
Sat 11:00:51 PM 46.8000 -85.3333 299° West 380 437 38,000  Level Winnipeg Center
Sat 11:01:51 PM 46.8500 -85.4667 299° West 380 437 38,000  Level Winnipeg Center
Sat 11:02:51 PM 46.9000 -85.6000 299° West 380 437 38,000  Level Winnipeg Center
Sat 11:03:51 PM 46.9667 -85.7333 306° West 380 437 38,000  Level Winnipeg Center
Sat 11:04:51 PM 47.0000 -85.8667 290° West 390 449 38,000  Level Winnipeg Center
Sat 11:05:51 PM 47.0500 -86.0167 296° West 390 449 38,000  Level Winnipeg Center
Sat 11:06:51 PM 47.1000 -86.1500 299° West 390 449 38,000  Level Winnipeg Center
Sat 11:07:51 PM 47.1667 -86.2833 306° West 390 449 38,000  Level Winnipeg Center
Sat 11:08:51 PM 47.2167 -86.4167 299° West 390 449 38,000  Level Winnipeg Center
Sat 11:09:51 PM 47.2667 -86.5667 296° West 400 460 38,000  Level Winnipeg Center
Sat 11:10:51 PM 47.3167 -86.7167 296° West 400 460 38,000  Level Winnipeg Center
Sat 11:11:51 PM 47.3667 -86.8667 296° West 400 460 38,000  Level Winnipeg Center
Sat 11:12:51 PM 47.4167 -87.0000 299° West 400 460 38,000  Level Winnipeg Center
Sat 11:13:51 PM 47.4667 -87.1333 299° West 390 449 38,000  Level Winnipeg Center
Sat 11:14:51 PM 47.5167 -87.2833 296° West 390 449 38,000  Level Winnipeg Center
Sat 11:15:51 PM 47.5833 -87.4333 303° West 390 449 38,000  Level Winnipeg Center
Sat 11:16:51 PM 47.6167 -87.5833 288° West 390 449 38,000  Level Winnipeg Center
Sat 11:17:51 PM 47.6667 -87.7167 299° West 390 449 38,000  Level Winnipeg Center
Sat 11:18:51 PM 47.7167 -87.8667 296° West 390 449 38,000  Level Winnipeg Center
Sat 11:19:51 PM 47.7667 -88.0000 299° West 390 449 38,000  Level Winnipeg Center
Sat 11:20:51 PM 47.8167 -88.1500 296° West 390 449 38,000  Level Winnipeg Center
Sat 11:21:51 PM 47.8667 -88.2833 299° West 390 449 38,000  Level Winnipeg Center
Sat 11:22:51 PM 47.9167 -88.4500 294° West 390 449 38,000  Level Winnipeg Center
Sat 11:23:51 PM 47.9500 -88.5667 293° West 390 449 38,000  Level Winnipeg Center
Sat 11:24:51 PM 48.0167 -88.7167 304° West 390 449 38,000  Level Winnipeg Center
Sat 11:25:51 PM 48.0667 -88.8833 294° West 390 449 38,000  Level Winnipeg Center
Sat 11:26:51 PM 48.1000 -89.0167 291° West 390 449 38,000  Level Winnipeg Center
Sat 11:27:51 PM 48.1667 -89.1667 304° West 400 460 38,000  Level Winnipeg Center
Sat 11:28:51 PM 48.2167 -89.3167 297° West 400 460 38,000  Level Winnipeg Center
Sat 11:29:51 PM 48.2500 -89.4500 291° West 400 460 38,000  Level Winnipeg Center
Sat 11:30:51 PM 48.3000 -89.6167 294° West 400 460 38,000  Level Winnipeg Center
Sat 11:31:51 PM 48.3333 -89.7667 289° West 400 460 38,000  Level Winnipeg Center
Sat 11:32:51 PM 48.3667 -89.9167 289° West 400 460 38,000  Level Winnipeg Center
Sat 11:33:51 PM 48.4167 -90.0833 294° West 400 460 38,000  Level Winnipeg Center
Sat 11:34:51 PM 48.4333 -90.2333 280° West 400 460 38,000  Level Winnipeg Center
Sat 11:35:51 PM 48.4833 -90.4000 294° West 400 460 38,000  Level Winnipeg Center
Sat 11:36:51 PM 48.5000 -90.5500 280° West 400 460 38,000  Level Winnipeg Center
Sat 11:37:51 PM 48.5500 -90.7167 294° West 400 460 38,000  Level Winnipeg Center
Sat 11:38:51 PM 48.5667 -90.8667 280° West 400 460 38,000  Level Winnipeg Center
Sat 11:39:51 PM 48.6167 -91.0167 297° West 400 460 38,000  Level Winnipeg Center
Sat 11:40:51 PM 48.6500 -91.2000 285° West 390 449 38,000  Level Winnipeg Center
Sat 11:41:51 PM 48.6833 -91.3333 291° West 390 449 38,000  Level Winnipeg Center
Sat 11:42:51 PM 48.7000 -91.4833 280° West 390 449 38,000  Level Winnipeg Center
Sat 11:43:51 PM 48.7500 -91.6667 293° West 380 437 38,000  Level Winnipeg Center
Sat 11:44:51 PM 48.7833 -91.8167 289° West 390 449 38,000  Level Winnipeg Center
Sat 11:45:51 PM 48.8167 -91.9667 289° West 390 449 38,000  Level Winnipeg Center
Sat 11:46:51 PM 48.8500 -92.1333 287° West 390 449 38,000  Level Winnipeg Center
Sat 11:47:51 PM 48.8833 -92.2833 289° West 400 460 38,000  Level Winnipeg Center
Sat 11:48:51 PM 48.9167 -92.4333 289° West 400 460 38,000  Level Winnipeg Center
Sat 11:49:51 PM 48.9333 -92.6167 278° West 400 460 38,000  Level Winnipeg Center
Sat 11:50:51 PM 48.9833 -92.7667 297° West 400 460 38,000  Level Winnipeg Center
Sat 11:51:51 PM 49.0000 -92.9333 279° West 400 460 38,000  Level Winnipeg Center
Sat 11:52:51 PM 49.0500 -93.0833 297° West 400 460 38,000  Level Winnipeg Center
Sat 11:53:51 PM 49.0667 -93.2667 278° West 400 460 38,000  Level Winnipeg Center
Sat 11:54:51 PM 49.1000 -93.4333 287° West 400 460 38,000  Level Winnipeg Center
Sat 11:55:51 PM 49.1333 -93.6000 287° West 400 460 38,000  Level Winnipeg Center
Sat 11:56:51 PM 49.1667 -93.7667 287° West 400 460 38,000  Level Winnipeg Center
Sat 11:57:51 PM 49.1833 -93.9167 280° West 400 460 38,000  Level Winnipeg Center
Sat 11:58:51 PM 49.2167 -94.1000 286° West 400 460 38,000  Level Winnipeg Center
Sat 11:59:51 PM 49.2667 -94.2500 297° West 400 460 38,000  Level Winnipeg Center
Sun 12:00:51 AM 49.2833 -94.4333 278° West 400 460 38,000  Level Winnipeg Center
Sun 12:01:51 AM 49.3167 -94.5833 289° West 410 472 38,000  Level Winnipeg Center
Sun 12:02:51 AM 49.3333 -94.7667 278° West 410 472 38,000  Level Winnipeg Center
Sun 12:03:51 AM 49.3833 -94.9167 297° West 410 472 38,000 -1,150 Level Winnipeg Center
Sun 12:04:51 AM 49.4167 -95.0833 287° West 400 460 35,700 -2,600 Descending Winnipeg Center
Sun 12:05:51 AM 49.4333 -95.2500 279° West 390 449 32,800 -3,050 Descending Winnipeg Center
Sun 12:06:51 AM 49.4667 -95.4000 289° West 370 426 29,600 -3,300 Descending Winnipeg Center
Sun 12:07:51 AM 49.4833 -95.5167 282° West 360 414 26,200 -3,450 Descending Winnipeg Center
Sun 12:08:51 AM 49.5000 -95.6833 279° West 350 403 22,700 -3,350 Descending Winnipeg Center
Sun 12:09:51 AM 49.5333 -95.8333 289° West 360 414 19,500 -3,050 Descending Winnipeg Center
Sun 12:10:51 AM 49.5667 -95.9667 291° West 350 403 16,600 -2,750 Descending Winnipeg Center
Sun 12:11:51 AM 49.6000 -96.1167 289° West 360 414 14,000 -2,450 Descending Winnipeg Center
Sun 12:12:51 AM 49.6500 -96.2500 300° West 350 403 11,700 -1,650 Descending Winnipeg Center
Sun 12:13:51 AM 49.6833 -96.3667 294° West 320 368 10,700 -1,050 Descending Winnipeg Center
Sun 12:14:51 AM 49.7167 -96.4667 297° West 260 299 9,600 -1,250 Descending Winnipeg Center
Sun 12:15:51 AM 49.7333 -96.5833 283° West 230 265 8,200 -1,450 Descending Winnipeg Center
Sun 12:16:51 AM 49.7333 -96.6833 270° West 240 276 6,700 -1,350 Descending Winnipeg Center
Sun 12:17:51 AM 49.7500 -96.7833 284° West 230 265 5,500 -1,250 Descending Winnipeg Center
Sun 12:18:51 AM 49.7333 -96.8667 253° West 220 253 4,200 -750 Descending Winnipeg Center
Sun 12:19:51 AM 49.7333 -96.9667 270° West 180 207 4,000 -100 Descending Winnipeg Center
Sun 12:20:51 AM 49.7500 -97.0167 297° West 180 207 4,000 -250 Level Winnipeg Center
Sun 12:21:51 AM 49.7833 -97.1000 302° West 190 219 3,500 -800 Descending Winnipeg Center
Sun 12:22:51 AM 49.8167 -97.1500 316° Northwest 180 207 2,400 -1,000 Descending Winnipeg Center
Sun 12:23:51 AM 49.8500 -97.1667 342° North 150 173 1,500 -800 Descending Winnipeg Center
Sun 12:24:51 AM 49.8833 -97.2333 308° West 120 138 800 -350 Descending Winnipeg Center
Sun 12:25:51 AM 49.9000 -97.2333 360° North 20 23 800 -50 Level Winnipeg Center
Sun 12:26:51 AM 49.9000 -97.2333 360° North 30 35 700 -100 Descending Winnipeg Center

Login

Don't have an account? Register now (free) for customized features, flight alerts, and more!